Wheeler, MI (48662)

4:38 PM EST on February 11, 2016 (GMT -0500)
(MAC), Breckenridge | | Change Station
CLOSE
Current Station
Personal Weather Station
Location: Wheeler, MI
Elevation: 733 ft
Nearby Weather Stations

Elev 733 ft 43.41 °N, 84.46 °W | Updated 2 minutes ago

Overcast
Overcast
20.2 °F
Feels Like 10 °F
N
9.0
Wind Variable Wind from West
Gusts 9.0 mph

Today
High -- | Low -- °F
--% Chance of Precip.
Yesterday
High -- | Low -- °F
Precip. -- in
Pressure 30.21 in
Visibility 10.0 miles
Clouds Overcast 4200 ft
Windchill 10 °F
Dew Point 7 °F
Humidity 55%
Rainfall 0.00 in
Snow Depth Not available.
7:42 AM 6:02 PM
Waxing Crescent, 14% visible
METAR KAMN 112135Z AUTO 25010G15KT 10SM OVC042 M05/M14 A3021 RMK AO2 T10541142
Pressure 30.21 in
Visibility 10.0 miles
Clouds Overcast 4200 ft
Windchill 10 °F
Dew Point 7 °F
Humidity 55%
Rainfall 0.00 in
Snow Depth Not available.
7:42 AM 6:02 PM
Waxing Crescent, 14% visible
METAR KAMN 112135Z AUTO 25010G15KT 10SM OVC042 M05/M14 A3021 RMK AO2 T10541142

10-Day Weather Forecast

Almanac

Astronomy

Feb. 11, 2016 Rise Set
Actual Time
Civil Twilight
Nautical Twilight
Astronomical Twilight
Moon
Length of Visible Light
Length of Day
Tomorrow will be .
, % of the Moon is Illuminated

Today's Extremes

State Highs State Lows

Community

WunderPhotos

Upload Photos

1,892,164 photos uploaded!

WunderBlog® & News

Nearby

Air Quality

  Air Quality AQ Index Pollutant
Not available.

Snow Depth

Station Depth Elevation

Earthquake Activity

City Distance Mag. Time & Date
Minimum magnitude displayed is 2.5.

Coastal Water Temperatures

Place Temperature

Stations

Nearby Weather Stations

Station Location Temp. Windchill Dew Point Humidity Wind Precip. Elev Updated Type
                   

Watches & Warnings

There are currently no watches in effect.